Archival Weather

Republic

Farmingdale, New York (KFRG)

Report from: Saturday, January 27, 2024 7:53 PM EST
Current time: Monday, June 17, 2024 2:33 AM EDT

Current weather – Weather history – Daily summaries
Weather forecast

Temperature5.6°C (42.1°F)
Wind chill4.0°C (39.2°F)
Dew point3.3°C (37.9°F)
Winds 4 kts (2.1 m/s, 4.6 mph) Southeast (140°)
Visibility10 mi. (16.1 km)
Clouds Ceiling: Overcast 2,300 ft. (701 m)
Altimeter30.22 in.Hg (1023 mB)
Relative humidity85 %
Density altitude-1,365 ft. (-416 m)
Sea-level pressure102.3 kPa (1023 mB, 30.22 in.Hg)
Remarks Automated weather observing station without precipitation discriminator
Flight conditions Marginal Visual Meteorological Conditions
Raw dataKFRG 280053Z 14004KT 10SM OVC023 06/03 A3022 RMK AO1 SLP234 T00560033
An error has occurred. This application may no longer respond until reloaded. Reload 🗙